Time;durP1;ratioP1;P1;durP2;ratioP2;P2;SDS_P1;SDS_P2;PMS_P1;PMS_P2;Temp;Humidity;BMP_temperature;BMP_pressure;BME280_temperature;BME280_humidity;BME280_pressure;Samples;Min_cycle;Max_cycle;Signal;HPM_P1;HPM_P2
2022/08/16 00:00:55;;;;;;;;;31.25;24.75;;;;;;;;5081907;28;63275;-82
2022/08/16 00:03:22;;;;;;;;;25.50;23.25;;;;;;;;5082060;28;61749;-81
2022/08/16 00:05:47;;;;;;;;;26.00;24.50;;;;;;;;5081253;28;61897;-82
2022/08/16 00:08:13;;;;;;;;;27.75;23.50;;;;;;;;5081995;28;62087;-81
2022/08/16 00:10:38;;;;;;;;;33.25;25.50;;;;;;;;5079786;28;64933;-81
2022/08/16 00:13:05;;;;;;;;;24.50;23.75;;;;;;;;5080988;28;61743;-81
2022/08/16 00:15:33;;;;;;;;;32.25;26.75;;;;;;;;5082058;28;61711;-81
2022/08/16 00:17:58;;;;;;;;;33.25;26.50;;;;;;;;5082433;28;61883;-81
2022/08/16 00:20:24;;;;;;;;;29.75;25.75;;;;;;;;5081598;28;61855;-81
2022/08/16 00:22:50;;;;;;;;;29.50;27.25;;;;;;;;5080677;28;61711;-81
2022/08/16 00:25:16;;;;;;;;;31.25;25.75;;;;;;;;5079831;28;61803;-81
2022/08/16 00:27:42;;;;;;;;;29.00;26.75;;;;;;;;5084114;28;62146;-81
2022/08/16 00:30:09;;;;;;;;;25.00;23.25;;;;;;;;5083562;28;64883;-81
2022/08/16 00:32:36;;;;;;;;;27.75;24.25;;;;;;;;5085238;28;61703;-81
2022/08/16 00:35:02;;;;;;;;;37.00;27.50;;;;;;;;5085600;28;61869;-81
2022/08/16 00:37:27;;;;;;;;;30.00;26.25;;;;;;;;5083662;28;61873;-81
2022/08/16 00:39:53;;;;;;;;;32.00;27.25;;;;;;;;5082891;28;63909;-81
2022/08/16 00:42:18;;;;;;;;;29.75;24.75;;;;;;;;5118280;27;61779;-81
2022/08/16 00:44:50;;;;;;;;;24.75;22.75;;;;;;;;5092209;27;62037;-81
2022/08/16 00:47:17;;;;;;;;;25.00;22.50;;;;;;;;5105979;27;61750;-81
2022/08/16 00:49:42;;;;;;;;;22.75;20.00;;;;;;;;5105012;27;62704;-81
2022/08/16 00:52:08;;;;;;;;;26.00;22.25;;;;;;;;5105675;27;61925;-81
2022/08/16 00:54:34;;;;;;;;;21.75;19.00;;;;;;;;5103087;27;61742;-81
2022/08/16 00:57:03;;;;;;;;;29.25;23.00;;;;;;;;5105976;27;61971;-81
2022/08/16 00:59:30;;;;;;;;;25.00;22.00;;;;;;;;5103750;27;63604;-81
2022/08/16 01:01:56;;;;;;;;;26.00;21.00;;;;;;;;5103838;27;61993;-81
2022/08/16 01:04:23;;;;;;;;;20.50;19.75;;;;;;;;5104143;27;61736;-81
2022/08/16 01:06:48;;;;;;;;;21.50;20.00;;;;;;;;5105663;27;61768;-82
2022/08/16 01:09:14;;;;;;;;;22.50;20.00;;;;;;;;5102693;27;64036;-81
2022/08/16 01:11:39;;;;;;;;;25.75;22.75;;;;;;;;5105297;27;61793;-81
2022/08/16 01:14:08;;;;;;;;;13.25;11.00;;;;;;;;5105662;27;61611;-81
2022/08/16 01:16:33;;;;;;;;;21.50;21.50;;;;;;;;5105367;27;62046;-81
2022/08/16 01:19:01;;;;;;;;;23.00;20.50;;;;;;;;5104885;27;62061;-81
2022/08/16 01:21:41;;;;;;;;;22.25;21.25;;;;;;;;5103835;27;61897;-81
2022/08/16 01:24:10;;;;;;;;;23.00;20.00;;;;;;;;5102609;27;62083;-81
2022/08/16 01:26:37;;;;;;;;;24.25;20.50;;;;;;;;5105588;27;62095;-81
2022/08/16 01:29:08;;;;;;;;;21.75;18.75;;;;;;;;5103048;27;63743;-81
2022/08/16 01:31:33;;;;;;;;;26.00;21.50;;;;;;;;5103804;27;61883;-81
2022/08/16 01:33:59;;;;;;;;;23.25;20.25;;;;;;;;5103695;27;61951;-82
2022/08/16 01:36:24;;;;;;;;;28.00;19.25;;;;;;;;5105641;27;61757;-81
2022/08/16 01:38:50;;;;;;;;;22.25;20.00;;;;;;;;5100942;27;63636;-81
2022/08/16 01:41:18;;;;;;;;;25.75;22.25;;;;;;;;5103255;27;61835;-81
2022/08/16 01:43:44;;;;;;;;;27.50;21.25;;;;;;;;5103748;27;61738;-81
2022/08/16 01:46:29;;;;;;;;;22.50;19.50;;;;;;;;5105035;27;62106;-81
2022/08/16 01:48:57;;;;;;;;;25.00;23.50;;;;;;;;5095431;27;63680;-81
2022/08/16 01:51:24;;;;;;;;;24.75;21.00;;;;;;;;5102951;27;61702;-81
2022/08/16 01:53:49;;;;;;;;;30.00;23.75;;;;;;;;5102279;27;61859;-81
2022/08/16 01:56:15;;;;;;;;;23.50;21.00;;;;;;;;5105076;27;61864;-81
2022/08/16 01:58:40;;;;;;;;;25.00;19.50;;;;;;;;5103900;27;61908;-81
2022/08/16 02:01:06;;;;;;;;;20.75;20.00;;;;;;;;5103224;27;61915;-81
2022/08/16 02:03:32;;;;;;;;;24.50;21.00;;;;;;;;5104579;27;62044;-81
2022/08/16 02:05:57;;;;;;;;;22.75;20.00;;;;;;;;5104574;27;61817;-81
2022/08/16 02:08:25;;;;;;;;;22.50;17.50;;;;;;;;5103347;27;62967;-81
2022/08/16 02:10:51;;;;;;;;;18.75;17.25;;;;;;;;5102885;27;61949;-81
2022/08/16 02:13:16;;;;;;;;;22.00;18.00;;;;;;;;5104530;27;61883;-81
2022/08/16 02:15:41;;;;;;;;;25.50;20.50;;;;;;;;5104544;27;61838;-81
2022/08/16 02:18:08;;;;;;;;;24.50;18.25;;;;;;;;5102373;27;64592;-81
2022/08/16 02:20:35;;;;;;;;;23.75;19.75;;;;;;;;5104336;27;61903;-81
2022/08/16 02:23:01;;;;;;;;;22.00;20.00;;;;;;;;5102882;27;61739;-81
2022/08/16 02:25:26;;;;;;;;;21.75;19.25;;;;;;;;5104297;27;61746;-81
2022/08/16 02:27:52;;;;;;;;;21.50;16.50;;;;;;;;5102179;27;63449;-81
2022/08/16 02:30:20;;;;;;;;;20.50;19.75;;;;;;;;5102546;27;61832;-81
2022/08/16 02:32:46;;;;;;;;;20.75;19.00;;;;;;;;5104394;27;62007;-81
2022/08/16 02:35:12;;;;;;;;;21.75;19.00;;;;;;;;5102937;27;61807;-81
2022/08/16 02:37:37;;;;;;;;;22.75;19.25;;;;;;;;5101347;27;63586;-81
2022/08/16 02:40:04;;;;;;;;;25.25;19.50;;;;;;;;5102329;27;62133;-81
2022/08/16 02:42:29;;;;;;;;;25.50;20.00;;;;;;;;5103815;27;61922;-81
2022/08/16 02:44:55;;;;;;;;;22.50;20.25;;;;;;;;5103766;27;61742;-81
2022/08/16 02:47:20;;;;;;;;;20.25;17.75;;;;;;;;5103193;27;62082;-81
2022/08/16 02:49:45;;;;;;;;;23.75;20.25;;;;;;;;5103561;27;62240;-79
2022/08/16 02:52:11;;;;;;;;;26.75;22.00;;;;;;;;5103704;27;61880;-81
2022/08/16 02:54:36;;;;;;;;;17.75;14.75;;;;;;;;5101901;27;61845;-81
2022/08/16 02:57:02;;;;;;;;;24.00;18.50;;;;;;;;5103029;27;61886;-81
2022/08/16 02:59:27;;;;;;;;;22.50;21.75;;;;;;;;5102419;27;61777;-81
2022/08/16 03:01:53;;;;;;;;;17.00;17.00;;;;;;;;5102102;27;62050;-81
2022/08/16 03:04:18;;;;;;;;;22.50;19.50;;;;;;;;5103519;27;62075;-81
2022/08/16 03:06:43;;;;;;;;;27.50;20.25;;;;;;;;5102987;27;62907;-81
2022/08/16 03:09:09;;;;;;;;;20.00;17.75;;;;;;;;5101745;27;61850;-81
2022/08/16 03:11:34;;;;;;;;;23.00;20.75;;;;;;;;5102279;27;61956;-81
2022/08/16 03:14:00;;;;;;;;;25.00;20.00;;;;;;;;5103574;27;61817;-81
2022/08/16 03:16:25;;;;;;;;;22.00;20.75;;;;;;;;5103060;27;61723;-81
2022/08/16 03:18:52;;;;;;;;;28.25;20.00;;;;;;;;5101696;27;61745;-81
2022/08/16 03:21:17;;;;;;;;;22.00;20.25;;;;;;;;5101675;27;61718;-81
2022/08/16 03:23:42;;;;;;;;;20.50;20.50;;;;;;;;5101473;27;62088;-81
2022/08/16 03:26:08;;;;;;;;;22.50;18.50;;;;;;;;5102759;27;61999;-81
2022/08/16 03:28:33;;;;;;;;;21.00;20.00;;;;;;;;5101884;27;61952;-81
2022/08/16 03:30:58;;;;;;;;;23.75;22.25;;;;;;;;5103207;27;62286;-81
2022/08/16 03:33:24;;;;;;;;;23.00;20.25;;;;;;;;5103057;27;61713;-81
2022/08/16 03:35:50;;;;;;;;;29.50;22.25;;;;;;;;5102504;27;62023;-82
2022/08/16 03:38:16;;;;;;;;;25.25;23.00;;;;;;;;5102905;27;61749;-81
2022/08/16 03:40:42;;;;;;;;;25.50;22.25;;;;;;;;5103087;27;61860;-81
2022/08/16 03:43:08;;;;;;;;;26.50;21.50;;;;;;;;5101535;27;61859;-81
2022/08/16 03:45:34;;;;;;;;;20.00;18.50;;;;;;;;5100965;27;64952;-81
2022/08/16 03:48:01;;;;;;;;;22.00;21.00;;;;;;;;5102383;27;61679;-81
2022/08/16 03:50:26;;;;;;;;;21.00;18.75;;;;;;;;5101597;27;62122;-81
2022/08/16 03:52:52;;;;;;;;;23.00;18.75;;;;;;;;5101556;27;62270;-81
2022/08/16 03:55:17;;;;;;;;;25.25;22.50;;;;;;;;5100314;27;65060;-81
2022/08/16 03:57:42;;;;;;;;;21.50;19.50;;;;;;;;5103092;27;61844;-81
2022/08/16 04:00:12;;;;;;;;;23.25;19.75;;;;;;;;5102857;27;61879;-81
2022/08/16 04:02:37;;;;;;;;;25.75;20.25;;;;;;;;5103135;27;62039;-81
2022/08/16 04:05:03;;;;;;;;;21.25;20.50;;;;;;;;5104561;27;64002;-81
2022/08/16 04:07:28;;;;;;;;;24.00;20.50;;;;;;;;5105084;27;61865;-81
2022/08/16 04:09:54;;;;;;;;;23.00;20.75;;;;;;;;5106002;27;61913;-81
2022/08/16 04:12:19;;;;;;;;;30.25;21.75;;;;;;;;5106380;27;61741;-81
2022/08/16 04:14:46;;;;;;;;;27.75;22.25;;;;;;;;5106086;27;62047;-81
2022/08/16 04:17:13;;;;;;;;;21.25;20.00;;;;;;;;5105512;27;61768;-81
2022/08/16 04:19:38;;;;;;;;;20.75;20.25;;;;;;;;5104910;27;61815;-81
2022/08/16 04:22:04;;;;;;;;;26.75;22.00;;;;;;;;5106360;27;61674;-81
2022/08/16 04:24:29;;;;;;;;;22.25;19.50;;;;;;;;5104931;27;62926;-81
2022/08/16 04:26:54;;;;;;;;;24.25;21.00;;;;;;;;5104765;27;62051;-81
2022/08/16 04:29:20;;;;;;;;;23.75;21.25;;;;;;;;5105948;27;61944;-81
2022/08/16 04:31:46;;;;;;;;;28.75;25.50;;;;;;;;5104198;27;62217;-81
2022/08/16 04:34:13;;;;;;;;;27.75;23.75;;;;;;;;5105753;27;62062;-81
2022/08/16 04:36:38;;;;;;;;;27.50;24.50;;;;;;;;5104471;27;61889;-81
2022/08/16 04:39:03;;;;;;;;;26.75;23.25;;;;;;;;5105808;27;61717;-81
2022/08/16 04:41:30;;;;;;;;;25.00;21.25;;;;;;;;5105558;27;61745;-81
2022/08/16 04:43:55;;;;;;;;;30.50;24.25;;;;;;;;5105261;27;62707;-81
2022/08/16 04:46:21;;;;;;;;;31.25;25.00;;;;;;;;5105363;27;61673;-82
2022/08/16 04:48:46;;;;;;;;;29.25;24.00;;;;;;;;5104394;27;61977;-81
2022/08/16 04:51:11;;;;;;;;;25.75;22.75;;;;;;;;5105926;27;61903;-81
2022/08/16 04:53:37;;;;;;;;;19.00;17.50;;;;;;;;5104427;27;61775;-81
2022/08/16 04:56:02;;;;;;;;;26.25;26.25;;;;;;;;5104406;27;61741;-81
2022/08/16 04:58:30;;;;;;;;;23.50;21.25;;;;;;;;5105711;27;61829;-81
2022/08/16 05:00:55;;;;;;;;;27.50;22.00;;;;;;;;5105345;27;61771;-81
2022/08/16 05:03:20;;;;;;;;;23.00;21.25;;;;;;;;5103419;27;63584;-81
2022/08/16 05:05:46;;;;;;;;;29.00;23.50;;;;;;;;5105611;27;61897;-82
2022/08/16 05:08:12;;;;;;;;;24.25;23.50;;;;;;;;5105227;27;62014;-81
2022/08/16 05:10:37;;;;;;;;;26.25;22.25;;;;;;;;5104050;27;61827;-83
2022/08/16 05:13:04;;;;;;;;;28.00;21.25;;;;;;;;5103276;27;63551;-85
2022/08/16 05:15:33;;;;;;;;;24.75;23.50;;;;;;;;5104571;27;62089;-82
2022/08/16 05:18:00;;;;;;;;;25.50;24.50;;;;;;;;5103822;27;61695;-82
2022/08/16 05:20:26;;;;;;;;;26.25;23.50;;;;;;;;5105288;27;61733;-84
2022/08/16 05:22:51;;;;;;;;;20.25;18.25;;;;;;;;5104278;27;61768;-86
2022/08/16 05:25:17;;;;;;;;;27.00;22.50;;;;;;;;5103302;27;61977;-85
2022/08/16 05:27:43;;;;;;;;;26.00;22.50;;;;;;;;5104385;27;61721;-85
2022/08/16 05:30:12;;;;;;;;;20.25;19.00;;;;;;;;5103228;27;61891;-85
2022/08/16 05:32:37;;;;;;;;;17.75;15.25;;;;;;;;5102906;27;64060;-85
2022/08/16 05:35:06;;;;;;;;;23.25;20.25;;;;;;;;5105015;27;61791;-85
2022/08/16 05:37:31;;;;;;;;;21.00;18.75;;;;;;;;5102936;27;61720;-81
2022/08/16 05:39:56;;;;;;;;;22.50;19.50;;;;;;;;5102757;27;62069;-79
2022/08/16 05:42:22;;;;;;;;;20.25;19.00;;;;;;;;5102270;27;63641;-81
2022/08/16 05:44:47;;;;;;;;;17.75;17.25;;;;;;;;5103697;27;61860;-81
2022/08/16 05:47:14;;;;;;;;;19.50;17.75;;;;;;;;5104455;27;62034;-81
2022/08/16 05:49:39;;;;;;;;;22.00;18.00;;;;;;;;5104157;27;61855;-81
2022/08/16 05:52:04;;;;;;;;;19.25;18.25;;;;;;;;5101767;27;65091;-81
2022/08/16 05:54:30;;;;;;;;;17.75;17.00;;;;;;;;5103704;27;61916;-82
2022/08/16 05:56:56;;;;;;;;;16.50;15.25;;;;;;;;5104158;27;62427;-82
2022/08/16 05:59:22;;;;;;;;;17.75;14.75;;;;;;;;5101324;27;61798;-82
2022/08/16 06:01:49;;;;;;;;;14.50;13.50;;;;;;;;5101864;27;64647;-82
2022/08/16 06:04:15;;;;;;;;;17.25;13.75;;;;;;;;5103132;27;61674;-81
2022/08/16 06:06:41;;;;;;;;;15.75;13.25;;;;;;;;5104401;27;61772;-82
2022/08/16 06:09:06;;;;;;;;;19.00;12.25;;;;;;;;5104249;27;61816;-82
2022/08/16 06:11:32;;;;;;;;;17.75;14.25;;;;;;;;5102014;27;63736;-81
2022/08/16 06:13:57;;;;;;;;;17.50;14.75;;;;;;;;5102450;27;61972;-81
2022/08/16 06:16:22;;;;;;;;;18.25;16.00;;;;;;;;5103992;27;61935;-82
2022/08/16 06:18:48;;;;;;;;;13.00;13.00;;;;;;;;5104500;27;62069;-82
2022/08/16 06:21:13;;;;;;;;;12.25;11.00;;;;;;;;5101854;27;63982;-82
2022/08/16 06:23:39;;;;;;;;;17.00;14.00;;;;;;;;5102074;27;62098;-81
2022/08/16 06:26:05;;;;;;;;;13.50;11.25;;;;;;;;5103631;27;61995;-82
2022/08/16 06:28:31;;;;;;;;;13.00;11.25;;;;;;;;5101261;27;61987;-83
2022/08/16 06:30:56;;;;;;;;;15.75;14.25;;;;;;;;5102918;27;62140;-82
2022/08/16 06:33:22;;;;;;;;;10.50;9.75;;;;;;;;5103981;27;61791;-82
2022/08/16 06:35:48;;;;;;;;;17.25;14.25;;;;;;;;5101001;27;62917;-79
2022/08/16 06:38:13;;;;;;;;;14.50;12.50;;;;;;;;5102508;27;62153;-86
2022/08/16 06:40:39;;;;;;;;;14.00;13.67;;;;;;;;5101779;27;63692;-80
2022/08/16 06:43:04;;;;;;;;;16.25;15.75;;;;;;;;5101104;27;62029;-82
2022/08/16 06:45:30;;;;;;;;;13.25;12.25;;;;;;;;5103361;27;61856;-82
2022/08/16 06:47:55;;;;;;;;;10.00;9.75;;;;;;;;5102122;27;61997;-81
2022/08/16 06:50:21;;;;;;;;;14.25;12.50;;;;;;;;5102670;27;62900;-81
2022/08/16 06:52:46;;;;;;;;;16.75;12.25;;;;;;;;5103383;27;62140;-80
2022/08/16 06:55:12;;;;;;;;;12.50;11.00;;;;;;;;5101227;27;62075;-81
2022/08/16 06:57:38;;;;;;;;;12.75;10.50;;;;;;;;5101245;27;62102;-81
2022/08/16 07:00:11;;;;;;;;;11.75;9.00;;;;;;;;5102330;27;61860;-82
2022/08/16 07:02:36;;;;;;;;;13.50;11.25;;;;;;;;5103687;27;61993;-81
2022/08/16 07:05:02;;;;;;;;;17.50;12.00;;;;;;;;5103524;27;62195;-81
2022/08/16 07:07:27;;;;;;;;;13.00;13.00;;;;;;;;5103585;27;62120;-80
2022/08/16 07:09:52;;;;;;;;;11.75;10.25;;;;;;;;5102628;27;62048;-82
2022/08/16 07:12:18;;;;;;;;;14.50;9.50;;;;;;;;5101711;27;61878;-83
2022/08/16 07:14:43;;;;;;;;;14.25;11.75;;;;;;;;5102210;27;61954;-82
2022/08/16 07:17:09;;;;;;;;;10.25;10.25;;;;;;;;5101837;27;61851;-83
2022/08/16 07:19:34;;;;;;;;;14.25;9.50;;;;;;;;5101241;27;64779;-80
2022/08/16 07:22:01;;;;;;;;;15.00;11.50;;;;;;;;5102568;27;61990;-79
2022/08/16 07:24:27;;;;;;;;;15.75;12.25;;;;;;;;5101006;27;61981;-79
2022/08/16 07:26:53;;;;;;;;;11.25;11.25;;;;;;;;5099865;27;61903;-79
2022/08/16 07:29:18;;;;;;;;;11.67;10.00;;;;;;;;5098268;27;61837;-79
2022/08/16 07:31:43;;;;;;;;;11.00;11.00;;;;;;;;5081361;28;61919;-79
2022/08/16 07:34:09;;;;;;;;;10.00;10.00;;;;;;;;5081064;28;62042;-79
2022/08/16 07:36:34;;;;;;;;;11.25;10.00;;;;;;;;5081848;28;62015;-79
2022/08/16 07:38:59;;;;;;;;;11.67;10.67;;;;;;;;5083995;28;65009;-79
2022/08/16 07:41:24;;;;;;;;;12.00;8.75;;;;;;;;5085573;28;61905;-79
2022/08/16 07:43:50;;;;;;;;;9.25;9.25;;;;;;;;5103126;27;61722;-79
2022/08/16 07:46:15;;;;;;;;;10.25;8.25;;;;;;;;5102575;27;62132;-79
2022/08/16 07:48:40;;;;;;;;;11.33;9.67;;;;;;;;5104426;27;65101;-80
2022/08/16 07:51:05;;;;;;;;;12.00;11.00;;;;;;;;5105898;27;61990;-79
2022/08/16 07:53:33;;;;;;;;;10.25;8.25;;;;;;;;5103712;27;61800;-79
2022/08/16 07:55:59;;;;;;;;;9.50;8.50;;;;;;;;5104715;27;62070;-79
2022/08/16 07:58:27;;;;;;;;;9.00;9.00;;;;;;;;5104297;27;63803;-79
2022/08/16 08:00:52;;;;;;;;;10.25;10.25;;;;;;;;5105548;27;61673;-79
2022/08/16 08:03:17;;;;;;;;;11.00;9.25;;;;;;;;5104511;27;61744;-79
2022/08/16 08:05:43;;;;;;;;;11.00;10.00;;;;;;;;5105935;27;62134;-79
2022/08/16 08:08:08;;;;;;;;;12.00;11.25;;;;;;;;5105148;27;63135;-80
2022/08/16 08:10:33;;;;;;;;;10.67;10.00;;;;;;;;5106026;27;61664;-79
2022/08/16 08:12:59;;;;;;;;;9.25;9.25;;;;;;;;5104012;27;61965;-79
2022/08/16 08:15:24;;;;;;;;;9.75;9.75;;;;;;;;5104445;27;61756;-79
2022/08/16 08:17:49;;;;;;;;;10.75;9.50;;;;;;;;5104930;27;62085;-79
2022/08/16 08:20:16;;;;;;;;;11.67;10.00;;;;;;;;5106083;27;61686;-79
2022/08/16 08:22:45;;;;;;;;;9.33;9.33;;;;;;;;5105917;27;61824;-79
2022/08/16 08:25:10;;;;;;;;;9.67;9.67;;;;;;;;5104858;27;61924;-79
2022/08/16 08:27:35;;;;;;;;;13.33;10.33;;;;;;;;5104109;27;63913;-79
2022/08/16 08:30:08;;;;;;;;;12.00;7.33;;;;;;;;5105801;27;62006;-79
2022/08/16 08:32:33;;;;;;;;;11.00;7.67;;;;;;;;5104483;27;61873;-79
2022/08/16 08:35:00;;;;;;;;;12.00;11.00;;;;;;;;5088005;27;61766;-79
2022/08/16 08:37:26;;;;;;;;;8.33;8.33;;;;;;;;5084839;28;62755;-79
2022/08/16 08:39:52;;;;;;;;;13.67;10.33;;;;;;;;5100161;27;61703;-78
2022/08/16 08:42:17;;;;;;;;;10.00;9.00;;;;;;;;5083692;28;61848;-79
2022/08/16 08:44:43;;;;;;;;;13.33;10.33;;;;;;;;5104259;27;61718;-79
2022/08/16 08:47:09;;;;;;;;;13.33;9.33;;;;;;;;5103578;27;63030;-79
2022/08/16 08:49:35;;;;;;;;;14.00;9.00;;;;;;;;5104034;27;61758;-79
2022/08/16 08:52:00;;;;;;;;;11.67;10.33;;;;;;;;5104491;27;61779;-79
2022/08/16 08:54:25;;;;;;;;;12.33;11.00;;;;;;;;5103828;27;62040;-79
2022/08/16 08:56:54;;;;;;;;;8.33;8.00;;;;;;;;5103597;27;65346;-79
2022/08/16 08:59:19;;;;;;;;;11.33;10.67;;;;;;;;5103911;27;61807;-80
2022/08/16 09:01:46;;;;;;;;;11.33;7.00;;;;;;;;5105241;27;61871;-78
2022/08/16 09:04:12;;;;;;;;;8.00;7.00;;;;;;;;5105836;27;61869;-79
2022/08/16 09:06:37;;;;;;;;;9.33;8.33;;;;;;;;5103918;27;62775;-79
2022/08/16 09:09:04;;;;;;;;;9.00;8.67;;;;;;;;5102815;27;61915;-79
2022/08/16 09:11:29;;;;;;;;;11.67;10.67;;;;;;;;5105280;27;61967;-79
2022/08/16 09:13:54;;;;;;;;;10.67;9.33;;;;;;;;5105005;27;62245;-79
2022/08/16 09:16:19;;;;;;;;;12.00;9.00;;;;;;;;5104615;27;62033;-79
2022/08/16 09:18:45;;;;;;;;;9.33;8.00;;;;;;;;5105313;27;61894;-80
2022/08/16 09:21:11;;;;;;;;;13.00;9.00;;;;;;;;5105118;27;61878;-80
2022/08/16 09:23:37;;;;;;;;;8.67;8.67;;;;;;;;5102431;27;62357;-79
2022/08/16 09:26:06;;;;;;;;;8.33;6.67;;;;;;;;5104165;27;61951;-79
2022/08/16 09:28:32;;;;;;;;;11.33;8.00;;;;;;;;5104807;27;61920;-79
2022/08/16 09:30:58;;;;;;;;;9.33;8.33;;;;;;;;5103121;27;61831;-79
2022/08/16 09:33:23;;;;;;;;;10.33;7.33;;;;;;;;5101640;27;61877;-79
2022/08/16 09:35:49;;;;;;;;;12.00;8.00;;;;;;;;5101974;27;65026;-79
2022/08/16 09:38:14;;;;;;;;;8.33;8.33;;;;;;;;5103898;27;62074;-79
2022/08/16 09:40:43;;;;;;;;;10.33;9.00;;;;;;;;5103215;27;61848;-79
2022/08/16 09:43:10;;;;;;;;;7.33;7.00;;;;;;;;5103088;27;62231;-79
2022/08/16 09:45:41;;;;;;;;;8.00;8.00;;;;;;;;5104046;27;62062;-84
2022/08/16 09:48:07;;;;;;;;;8.33;7.33;;;;;;;;5104671;27;62189;-82
2022/08/16 09:50:34;;;;;;;;;10.67;8.33;;;;;;;;5103825;27;62093;-83
2022/08/16 09:53:00;;;;;;;;;8.67;7.67;;;;;;;;5102266;27;62043;-82
2022/08/16 09:55:25;;;;;;;;;9.00;7.33;;;;;;;;5102273;27;63832;-83
2022/08/16 09:57:51;;;;;;;;;5.67;5.67;;;;;;;;5104372;27;61695;-82
2022/08/16 10:00:16;;;;;;;;;8.00;7.00;;;;;;;;5103658;27;62341;-83
2022/08/16 10:02:42;;;;;;;;;8.00;7.33;;;;;;;;5104621;27;61697;-82
2022/08/16 10:05:08;;;;;;;;;7.67;7.67;;;;;;;;5102051;27;64636;-82
2022/08/16 10:07:33;;;;;;;;;7.33;7.33;;;;;;;;5103501;27;61627;-83
2022/08/16 10:09:58;;;;;;;;;8.33;7.00;;;;;;;;5102044;27;61784;-82
2022/08/16 10:15:10;;;;;;;;;10.00;8.67;;;;;;;;5103611;27;62399;-80
2022/08/16 10:17:41;;;;;;;;;10.00;9.00;;;;;;;;5104350;27;61977;-81
2022/08/16 10:20:09;;;;;;;;;8.33;8.00;;;;;;;;5102080;27;61950;-80
2022/08/16 10:22:34;;;;;;;;;6.33;6.33;;;;;;;;5102996;27;62020;-80
2022/08/16 10:24:59;;;;;;;;;8.00;8.00;;;;;;;;5102667;27;63205;-79
2022/08/16 10:27:25;;;;;;;;;9.33;7.33;;;;;;;;5102817;27;61786;-78
2022/08/16 10:29:50;;;;;;;;;6.33;6.33;;;;;;;;5102009;27;62341;-78
2022/08/16 10:32:15;;;;;;;;;7.00;7.00;;;;;;;;5103685;27;61845;-79
2022/08/16 10:34:40;;;;;;;;;13.00;9.00;;;;;;;;5087585;27;62841;-79
2022/08/16 10:37:06;;;;;;;;;7.00;6.00;;;;;;;;5110495;27;61919;-79
2022/08/16 10:39:31;;;;;;;;;8.00;7.67;;;;;;;;5101407;27;61948;-78
2022/08/16 10:41:56;;;;;;;;;11.67;8.00;;;;;;;;5101946;27;61983;-79
2022/08/16 10:44:22;;;;;;;;;9.67;7.33;;;;;;;;5100975;27;63615;-80
2022/08/16 10:46:48;;;;;;;;;7.67;6.67;;;;;;;;5102463;27;61900;-80
2022/08/16 10:49:14;;;;;;;;;8.33;7.00;;;;;;;;5101934;27;61773;-80
2022/08/16 10:51:40;;;;;;;;;8.33;5.67;;;;;;;;5101110;27;61720;-80
2022/08/16 10:54:05;;;;;;;;;6.67;6.00;;;;;;;;5102302;27;61982;-80
2022/08/16 10:56:31;;;;;;;;;9.33;7.00;;;;;;;;5103783;27;61987;-80
2022/08/16 10:58:57;;;;;;;;;10.00;8.00;;;;;;;;5103910;27;61761;-80
2022/08/16 11:01:24;;;;;;;;;8.00;8.00;;;;;;;;5103611;27;61688;-80
2022/08/16 11:03:50;;;;;;;;;10.33;8.67;;;;;;;;5100894;27;62625;-80
2022/08/16 11:06:15;;;;;;;;;6.00;6.00;;;;;;;;5102347;27;61716;-81
2022/08/16 11:08:40;;;;;;;;;9.67;9.00;;;;;;;;5103170;27;61800;-80
2022/08/16 11:11:06;;;;;;;;;8.00;8.00;;;;;;;;5103623;27;61896;-80
2022/08/16 11:13:32;;;;;;;;;8.33;8.33;;;;;;;;5102881;27;62779;-79
2022/08/16 11:15:57;;;;;;;;;9.33;8.33;;;;;;;;5102934;27;61908;-80
2022/08/16 11:18:23;;;;;;;;;11.33;9.67;;;;;;;;5103198;27;61924;-80
2022/08/16 11:20:49;;;;;;;;;6.00;6.00;;;;;;;;5102350;27;62098;-81
2022/08/16 11:23:14;;;;;;;;;10.33;9.00;;;;;;;;5100563;27;63968;-81
2022/08/16 11:25:39;;;;;;;;;8.67;7.67;;;;;;;;5098431;27;61727;-81
2022/08/16 11:28:06;;;;;;;;;8.67;7.00;;;;;;;;5098611;27;61817;-81
2022/08/16 11:30:32;;;;;;;;;9.00;8.00;;;;;;;;5082696;27;61757;-82
2022/08/16 11:33:00;;;;;;;;;7.33;7.33;;;;;;;;5082238;27;62795;-81
2022/08/16 11:35:26;;;;;;;;;7.00;7.00;;;;;;;;5103144;27;61896;-82
2022/08/16 11:37:55;;;;;;;;;6.67;6.67;;;;;;;;5101279;27;61939;-83
2022/08/16 11:40:20;;;;;;;;;10.67;8.00;;;;;;;;5103052;27;61693;-83
2022/08/16 11:42:45;;;;;;;;;9.33;7.33;;;;;;;;5102316;27;63198;-82
2022/08/16 11:45:11;;;;;;;;;6.67;6.67;;;;;;;;5102952;27;61818;-79
2022/08/16 11:47:36;;;;;;;;;10.67;8.00;;;;;;;;5100881;27;62019;-77
2022/08/16 11:50:06;;;;;;;;;6.67;6.67;;;;;;;;5101989;27;61890;-77
2022/08/16 11:52:31;;;;;;;;;10.33;8.33;;;;;;;;5101541;27;61870;-77
2022/08/16 11:54:56;;;;;;;;;9.67;7.67;;;;;;;;5101373;27;61945;-77
2022/08/16 11:57:22;;;;;;;;;10.00;9.00;;;;;;;;5102371;27;61868;-77
2022/08/16 11:59:47;;;;;;;;;8.67;7.33;;;;;;;;5102744;27;61856;-77
2022/08/16 12:02:12;;;;;;;;;9.00;6.00;;;;;;;;5101630;27;61983;-77
2022/08/16 12:04:38;;;;;;;;;7.67;7.33;;;;;;;;5102575;27;61890;-77
2022/08/16 12:07:04;;;;;;;;;10.00;8.00;;;;;;;;5100982;27;61978;-77
2022/08/16 12:09:30;;;;;;;;;14.33;9.00;;;;;;;;5101446;27;62215;-77
2022/08/16 12:11:56;;;;;;;;;13.33;12.00;;;;;;;;5100053;27;62901;-77
2022/08/16 12:14:21;;;;;;;;;10.33;7.00;;;;;;;;5101548;27;61885;-77
2022/08/16 12:16:47;;;;;;;;;9.33;8.00;;;;;;;;5100193;27;61829;-77
2022/08/16 12:19:12;;;;;;;;;10.67;8.33;;;;;;;;5101179;27;61764;-78
2022/08/16 12:21:38;;;;;;;;;9.33;8.33;;;;;;;;5101076;27;62225;-77
2022/08/16 12:24:04;;;;;;;;;8.33;7.00;;;;;;;;5103882;27;61844;-77
2022/08/16 12:26:30;;;;;;;;;11.00;9.00;;;;;;;;5092534;27;61688;-78
2022/08/16 12:28:56;;;;;;;;;11.67;9.67;;;;;;;;5085698;27;61869;-78
2022/08/16 12:31:21;;;;;;;;;6.00;6.00;;;;;;;;5084333;27;61849;-78
2022/08/16 12:33:47;;;;;;;;;10.00;9.00;;;;;;;;5092483;27;61953;-77
2022/08/16 12:36:12;;;;;;;;;9.33;9.33;;;;;;;;5104565;27;61935;-77
2022/08/16 12:38:38;;;;;;;;;10.67;9.00;;;;;;;;5105832;27;62034;-78
2022/08/16 12:41:03;;;;;;;;;12.00;9.00;;;;;;;;5103678;27;63894;-78
2022/08/16 12:43:30;;;;;;;;;9.67;9.33;;;;;;;;5105541;27;61951;-78
2022/08/16 12:45:55;;;;;;;;;11.33;8.67;;;;;;;;5103370;27;62015;-77
2022/08/16 12:51:10;;;;;;;;;10.67;8.67;;;;;;;;5105250;27;61852;-77
2022/08/16 12:53:35;;;;;;;;;12.00;10.67;;;;;;;;5104574;27;61751;-77
2022/08/16 12:56:01;;;;;;;;;9.00;8.00;;;;;;;;5103896;27;61890;-77
2022/08/16 12:58:27;;;;;;;;;8.67;7.33;;;;;;;;5105951;27;62127;-77
2022/08/16 13:00:52;;;;;;;;;11.33;9.00;;;;;;;;5104376;27;61746;-77
2022/08/16 13:03:19;;;;;;;;;12.33;10.33;;;;;;;;5105366;27;61727;-77
2022/08/16 13:05:44;;;;;;;;;9.00;9.00;;;;;;;;5104173;27;61768;-77
2022/08/16 13:08:12;;;;;;;;;10.33;8.00;;;;;;;;5105210;27;61970;-77
2022/08/16 13:10:38;;;;;;;;;6.33;5.00;;;;;;;;5104592;27;61898;-77
2022/08/16 13:13:04;;;;;;;;;10.33;8.33;;;;;;;;5105471;27;62018;-77
2022/08/16 13:15:30;;;;;;;;;10.33;8.00;;;;;;;;5104711;27;61765;-77
2022/08/16 13:17:56;;;;;;;;;10.00;10.00;;;;;;;;5103737;27;62126;-77
2022/08/16 13:20:22;;;;;;;;;10.67;10.67;;;;;;;;5104867;27;62879;-79
2022/08/16 13:23:06;;;;;;;;;9.67;8.00;;;;;;;;5104660;27;62227;-79
2022/08/16 13:25:33;;;;;;;;;9.33;8.00;;;;;;;;5098125;27;61830;-79
2022/08/16 13:27:59;;;;;;;;;9.00;8.67;;;;;;;;5084019;28;61886;-78
2022/08/16 13:30:24;;;;;;;;;9.33;9.33;;;;;;;;5084020;28;62036;-79
2022/08/16 13:32:50;;;;;;;;;8.33;8.33;;;;;;;;5082813;28;62027;-80
2022/08/16 13:35:16;;;;;;;;;13.33;10.00;;;;;;;;5103380;27;61907;-79
2022/08/16 13:37:41;;;;;;;;;8.00;7.00;;;;;;;;5105099;27;61785;-79
2022/08/16 13:40:06;;;;;;;;;9.67;8.00;;;;;;;;5102467;27;63585;-79
2022/08/16 13:42:32;;;;;;;;;9.67;9.33;;;;;;;;5104135;27;61818;-79
2022/08/16 13:44:57;;;;;;;;;10.00;8.00;;;;;;;;5104662;27;62545;-78
2022/08/16 13:47:23;;;;;;;;;10.00;9.00;;;;;;;;5105125;27;61891;-78
2022/08/16 13:49:50;;;;;;;;;8.00;7.33;;;;;;;;5102511;27;64415;-77
2022/08/16 13:52:15;;;;;;;;;7.00;6.33;;;;;;;;5103386;27;61842;-77
2022/08/16 13:54:40;;;;;;;;;12.33;9.67;;;;;;;;5102497;27;61880;-77
2022/08/16 13:57:06;;;;;;;;;9.00;8.00;;;;;;;;5104545;27;61761;-77
2022/08/16 13:59:31;;;;;;;;;12.67;10.00;;;;;;;;5103758;27;61861;-77
2022/08/16 14:02:04;;;;;;;;;8.33;8.33;;;;;;;;5102742;27;62016;-77
2022/08/16 14:04:32;;;;;;;;;10.33;10.33;;;;;;;;5104614;27;61905;-78
2022/08/16 14:06:58;;;;;;;;;9.00;7.33;;;;;;;;5104617;27;61984;-77
2022/08/16 14:09:24;;;;;;;;;9.67;9.67;;;;;;;;5101567;27;64238;-77
2022/08/16 14:11:50;;;;;;;;;8.00;8.00;;;;;;;;5102919;27;61980;-77
2022/08/16 14:14:15;;;;;;;;;8.00;8.00;;;;;;;;5102484;27;61902;-77
2022/08/16 14:16:41;;;;;;;;;8.33;8.00;;;;;;;;5103906;27;62210;-77
2022/08/16 14:19:06;;;;;;;;;12.67;11.00;;;;;;;;5102996;27;63195;-77
2022/08/16 14:21:32;;;;;;;;;15.00;10.33;;;;;;;;5103294;27;61770;-77
2022/08/16 14:23:57;;;;;;;;;13.00;11.67;;;;;;;;5102480;27;61678;-77